createdAt,value
2022-07-29T00:02:24.610Z,12.83
2022-07-29T00:07:44.025Z,12.83
2022-07-29T00:13:02.706Z,12.83
2022-07-29T00:18:21.668Z,12.82
2022-07-29T00:23:41.264Z,12.82
2022-07-29T00:29:31.038Z,12.82
2022-07-29T00:34:19.937Z,12.82
2022-07-29T00:39:39.551Z,12.82
2022-07-29T00:44:58.332Z,12.81
2022-07-29T00:55:36.964Z,12.81
2022-07-29T01:04:10.016Z,12.8
2022-07-29T01:06:16.181Z,12.8
2022-07-29T01:11:35.671Z,12.8
2022-07-29T01:16:55.348Z,12.8
2022-07-29T01:22:14.351Z,12.8
2022-07-29T01:27:33.074Z,12.8
2022-07-29T01:32:52.629Z,12.79
2022-07-29T01:38:11.816Z,12.79
2022-07-29T01:43:31.319Z,12.79
2022-07-29T01:52:04.340Z,12.78
2022-07-29T01:59:27.395Z,12.78
2022-07-29T02:04:46.139Z,12.78
2022-07-29T02:10:05.522Z,12.78
2022-07-29T02:15:25.128Z,12.77
2022-07-29T02:20:43.611Z,12.78
2022-07-29T02:26:03.099Z,12.77
2022-07-29T02:31:32.254Z,12.77
2022-07-29T02:36:50.190Z,12.76
2022-07-29T02:42:00.223Z,12.76
2022-07-29T02:47:19.927Z,12.76
2022-07-29T02:52:39.481Z,12.76
2022-07-29T02:57:58.996Z,12.76
2022-07-29T03:03:18.313Z,12.75
2022-07-29T03:08:37.477Z,12.75
2022-07-29T03:13:56.258Z,12.74
2022-07-29T03:19:15.479Z,12.74
2022-07-29T03:26:01.598Z,12.73
2022-07-29T03:30:06.166Z,12.73
2022-07-29T03:35:15.196Z,12.73
2022-07-29T03:43:49.164Z,12.64
2022-07-29T03:51:13.277Z,12.71
2022-07-29T03:56:32.959Z,12.71
2022-07-29T04:01:52.598Z,12.71
2022-07-29T04:07:11.640Z,12.7
2022-07-29T04:12:31.071Z,12.7
2022-07-29T04:17:50.679Z,12.72
2022-07-29T04:23:10.104Z,12.72
2022-07-29T04:28:29.486Z,12.72
2022-07-29T04:33:48.714Z,12.74
2022-07-29T04:39:07.559Z,12.75
2022-07-29T04:44:28.537Z,12.77
2022-07-29T04:57:16.518Z,12.68
2022-07-29T04:58:59.038Z,12.76
2022-07-29T05:04:19.243Z,12.79
2022-07-29T05:14:56.980Z,12.84
2022-07-29T05:20:16.040Z,12.86
2022-07-29T05:25:40.913Z,12.89
2022-07-29T05:30:55.168Z,12.91
2022-07-29T05:36:14.276Z,12.94
2022-07-29T05:41:33.595Z,12.99
2022-07-29T05:46:52.593Z,13.06
2022-07-29T05:52:11.335Z,13.13
2022-07-29T05:57:30.260Z,13.19
2022-07-29T06:02:49.003Z,13.22
2022-07-29T06:13:27.065Z,13.39
2022-07-29T06:18:56.871Z,13.45
2022-07-29T06:24:05.471Z,13.49
2022-07-29T06:29:24.578Z,13.52
2022-07-29T06:34:44.111Z,13.54
2022-07-29T06:40:03.071Z,13.56
2022-07-29T06:45:21.799Z,13.6
2022-07-29T06:55:59.840Z,13.68
2022-07-29T07:01:18.687Z,13.76
2022-07-29T07:09:51.694Z,13.91
2022-07-29T07:14:08.225Z,14.35
2022-07-29T07:17:16.977Z,14.31
2022-07-29T07:27:56.001Z,14.36
2022-07-29T07:38:34.394Z,14.36
2022-07-29T07:43:53.414Z,14.18
2022-07-29T07:49:12.844Z,14.3
2022-07-29T07:57:45.776Z,14.13
2022-07-29T08:02:02.372Z,14.38
2022-07-29T08:10:35.398Z,14.39
2022-07-29T08:21:09.450Z,14.39
2022-07-29T08:26:28.251Z,14.39
2022-07-29T08:31:47.757Z,14.4
2022-07-29T08:37:06.905Z,14.4
2022-07-29T08:42:26.267Z,14.39
2022-07-29T08:47:45.233Z,14.39
2022-07-29T08:53:15.506Z,14.4
2022-07-29T08:58:24.572Z,14.42
2022-07-29T09:03:42.191Z,14.39
2022-07-29T09:24:58.380Z,14.4
2022-07-29T09:30:31.315Z,14.39
2022-07-29T09:35:36.169Z,14.39
2022-07-29T09:40:54.879Z,14.39
2022-07-29T09:46:14.272Z,14.39
2022-07-29T09:51:37.960Z,14.4
2022-07-29T09:56:52.733Z,14.39
2022-07-29T10:02:11.437Z,14.4
2022-07-29T10:07:30.671Z,14.4
2022-07-29T10:12:50.305Z,14.4
2022-07-29T10:21:35.727Z,14.4
2022-07-29T10:29:56.466Z,14.41
2022-07-29T10:39:25.859Z,14.4
2022-07-29T10:44:44.848Z,14.4
2022-07-29T10:50:04.037Z,14.43
2022-07-29T10:55:23.343Z,14.4
2022-07-29T11:00:42.900Z,14.4
2022-07-29T11:06:02.270Z,14.41
2022-07-29T11:11:22.090Z,14.39
2022-07-29T11:16:41.117Z,14.39
2022-07-29T11:22:00.487Z,14.39
2022-07-29T11:27:19.987Z,14.39
2022-07-29T11:32:38.599Z,14.4
2022-07-29T11:37:58.060Z,14.39
2022-07-29T11:43:17.510Z,14.4
2022-07-29T11:48:37.162Z,14.39
2022-07-29T11:53:55.866Z,14.4
2022-07-29T11:59:15.202Z,14.39
2022-07-29T12:07:47.779Z,14.39
2022-07-29T12:16:26.224Z,14.39
2022-07-29T12:20:31.253Z,14.39
2022-07-29T12:25:50.148Z,14.39
2022-07-29T12:31:09.542Z,14.39
2022-07-29T12:36:28.580Z,14.4
2022-07-29T12:41:47.840Z,14.4
2022-07-29T12:47:07.287Z,14.39
2022-07-29T12:52:26.686Z,14.4
2022-07-29T13:00:59.804Z,14.4
2022-07-29T13:13:43.148Z,14.39
2022-07-29T13:19:02.510Z,14.39
2022-07-29T13:24:21.796Z,14.38
2022-07-29T13:38:14.135Z,14.38
2022-07-29T13:40:19.328Z,14.38
2022-07-29T13:45:36.378Z,14.39
2022-07-29T13:50:55.916Z,14.39
2022-07-29T13:56:15.181Z,14.4
2022-07-29T14:02:49.371Z,14.39
2022-07-29T14:06:54.719Z,14.4
2022-07-29T14:12:14.555Z,14.38
2022-07-29T14:17:33.462Z,14.34
2022-07-29T14:22:52.762Z,13.73
2022-07-29T14:28:12.174Z,13.63
2022-07-29T14:33:30.978Z,13.57
2022-07-29T14:39:01.848Z,13.56
2022-07-29T14:44:09.420Z,13.58
2022-07-29T14:49:39.955Z,13.64
2022-07-29T14:54:48.401Z,13.65
2022-07-29T15:00:06.573Z,13.73
2022-07-29T15:05:26.120Z,14.38
2022-07-29T15:10:45.720Z,14.39
2022-07-29T15:17:19.874Z,14.4
2022-07-29T15:21:24.843Z,14.4
2022-07-29T15:26:44.085Z,14.39
2022-07-29T15:32:03.608Z,14.4
2022-07-29T15:37:22.843Z,14.38
2022-07-29T15:42:42.228Z,14.38
2022-07-29T15:48:01.249Z,14.39
2022-07-29T15:54:35.402Z,14.39
2022-07-29T15:58:40.540Z,14.39
2022-07-29T16:03:59.374Z,14.38
2022-07-29T16:18:03.878Z,13.8
2022-07-29T16:22:20.432Z,14.38
2022-07-29T16:26:24.962Z,14.38
2022-07-29T16:35:54.813Z,13.82
2022-07-29T16:41:12.286Z,13.66
2022-07-29T16:46:32.503Z,13.56
2022-07-29T16:53:06.661Z,13.53
2022-07-29T16:57:10.928Z,13.55
2022-07-29T17:02:30.261Z,13.59
2022-07-29T17:09:04.293Z,13.66
2022-07-29T17:13:10.615Z,13.74
2022-07-29T17:18:29.308Z,13.73
2022-07-29T17:23:47.170Z,13.64
2022-07-29T17:29:06.656Z,13.55
2022-07-29T17:34:26.107Z,13.46
2022-07-29T17:39:45.643Z,13.39
2022-07-29T17:45:03.909Z,13.3
2022-07-29T17:50:30.838Z,13.22
2022-07-29T17:55:52.382Z,13.11
2022-07-29T18:06:21.006Z,12.92
2022-07-29T18:17:00.555Z,12.78
2022-07-29T18:22:19.785Z,12.76
2022-07-29T18:27:46.753Z,12.78
2022-07-29T18:33:19.517Z,12.8
2022-07-29T18:38:16.979Z,12.82
2022-07-29T18:43:35.723Z,12.83
2022-07-29T18:48:55.246Z,12.84
2022-07-29T18:54:14.218Z,12.84
2022-07-29T18:59:33.568Z,12.84
2022-07-29T19:04:53.537Z,12.84
2022-07-29T19:10:12.289Z,12.85
2022-07-29T19:15:31.619Z,12.84
2022-07-29T19:20:50.544Z,12.85
2022-07-29T19:26:09.186Z,12.85
2022-07-29T19:31:28.139Z,12.86
2022-07-29T19:36:47.487Z,12.85
2022-07-29T19:42:06.178Z,12.86
2022-07-29T19:47:26.575Z,12.86
2022-07-29T19:52:45.274Z,12.86
2022-07-29T19:58:04.352Z,12.86
2022-07-29T20:03:24.119Z,12.86
2022-07-29T20:09:51.623Z,12.86
2022-07-29T20:14:02.067Z,12.86
2022-07-29T20:19:20.119Z,12.85
2022-07-29T20:24:39.856Z,12.85
2022-07-29T20:29:59.308Z,12.86
2022-07-29T20:35:17.376Z,12.86
2022-07-29T20:40:47.053Z,12.86
2022-07-29T20:45:56.486Z,12.85
2022-07-29T20:51:16.365Z,12.85
2022-07-29T20:56:34.918Z,12.86
2022-07-29T21:02:02.600Z,12.85
2022-07-29T21:07:13.131Z,12.85
2022-07-29T21:12:32.439Z,12.85
2022-07-29T21:19:31.011Z,12.85
2022-07-29T21:23:11.862Z,12.85
2022-07-29T21:28:31.331Z,12.85
2022-07-29T21:37:04.630Z,12.84
2022-07-29T21:41:20.909Z,12.84
2022-07-29T21:45:37.464Z,12.84
2022-07-29T21:49:46.360Z,12.84
2022-07-29T21:55:05.926Z,12.84
2022-07-29T22:00:24.886Z,12.85
2022-07-29T22:06:59.422Z,12.84
2022-07-29T22:11:13.665Z,12.84
2022-07-29T22:16:23.126Z,12.84
2022-07-29T22:22:57.258Z,12.83
2022-07-29T22:27:02.377Z,12.84
2022-07-29T22:32:21.009Z,12.84
2022-07-29T22:37:39.523Z,12.84
2022-07-29T22:42:58.293Z,12.83
2022-07-29T22:48:18.463Z,12.83
2022-07-29T23:04:16.598Z,12.83
2022-07-29T23:09:35.101Z,12.83
2022-07-29T23:14:53.840Z,12.82
2022-07-29T23:20:14.740Z,12.82
2022-07-29T23:21:26.711Z,12.8
2022-07-29T23:26:06.578Z,12.81
2022-07-29T23:31:25.871Z,12.82
2022-07-29T23:39:13.805Z,12.82
2022-07-29T23:52:44.942Z,12.81
2022-07-29T23:58:02.621Z,12.81
